createdAt,value
2018-12-12T00:01:11.365Z,4.20
2018-12-12T00:03:39.931Z,3.52
2018-12-12T00:06:08.537Z,3.30
2018-12-12T00:08:37.101Z,3.72
2018-12-12T00:11:05.924Z,3.70
2018-12-12T00:13:34.676Z,3.95
2018-12-12T00:16:03.602Z,3.90
2018-12-12T00:18:32.401Z,3.65
2018-12-12T00:21:01.205Z,3.98
2018-12-12T00:23:29.761Z,3.52
2018-12-12T00:25:58.557Z,4.10
2018-12-12T00:28:27.158Z,3.83
2018-12-12T00:30:55.721Z,3.58
2018-12-12T00:33:24.280Z,3.87
2018-12-12T00:35:52.864Z,4.50
2018-12-12T00:38:21.424Z,4.28
2018-12-12T00:40:50.012Z,4.62
2018-12-12T00:43:18.598Z,3.58
2018-12-12T00:45:47.159Z,4.12
2018-12-12T00:48:15.728Z,3.83
2018-12-12T00:50:44.280Z,4.67
2018-12-12T00:53:12.840Z,4.22
2018-12-12T00:55:41.422Z,3.52
2018-12-12T00:58:09.980Z,4.20
2018-12-12T01:00:38.535Z,4.53
2018-12-12T01:03:07.107Z,4.37
2018-12-12T01:05:35.683Z,4.25
2018-12-12T01:08:04.271Z,4.70
2018-12-12T01:10:32.884Z,3.58
2018-12-12T01:13:01.433Z,5.35
2018-12-12T01:15:30.000Z,4.20
2018-12-12T01:17:58.597Z,4.35
2018-12-12T01:20:27.157Z,3.77
2018-12-12T01:22:55.736Z,3.98
2018-12-12T01:25:24.287Z,3.52
2018-12-12T01:27:52.847Z,4.15
2018-12-12T01:30:21.496Z,4.33
2018-12-12T01:32:50.067Z,5.47
2018-12-12T01:35:18.624Z,3.95
2018-12-12T01:37:47.187Z,4.20
2018-12-12T01:40:15.744Z,4.47
2018-12-12T01:42:44.316Z,3.87
2018-12-12T01:45:12.899Z,4.00
2018-12-12T01:47:41.472Z,3.60
2018-12-12T01:50:10.051Z,3.40
2018-12-12T01:52:38.632Z,3.67
2018-12-12T01:55:07.162Z,4.35
2018-12-12T01:57:35.754Z,3.87
2018-12-12T02:00:04.672Z,3.65
2018-12-12T02:02:33.225Z,4.15
2018-12-12T02:05:01.798Z,3.58
2018-12-12T02:07:30.489Z,3.27
2018-12-12T02:09:59.045Z,4.00
2018-12-12T02:12:27.604Z,4.10
2018-12-12T02:14:56.185Z,3.75
2018-12-12T02:17:24.766Z,4.12
2018-12-12T02:19:53.343Z,3.55
2018-12-12T02:22:21.900Z,3.65
2018-12-12T02:24:50.476Z,3.98
2018-12-12T02:27:19.970Z,4.37
2018-12-12T02:29:48.521Z,4.25
2018-12-12T02:32:17.093Z,3.37
2018-12-12T02:34:45.666Z,3.90
2018-12-12T02:37:14.218Z,3.20
2018-12-12T02:39:42.789Z,3.62
2018-12-12T02:42:11.714Z,3.47
2018-12-12T02:44:40.285Z,3.50
2018-12-12T02:47:08.876Z,3.60
2018-12-12T02:49:37.440Z,3.50
2018-12-12T02:52:05.985Z,3.58
2018-12-12T02:54:34.553Z,3.30
2018-12-12T02:57:03.126Z,3.62
2018-12-12T02:59:31.678Z,3.33
2018-12-12T03:02:00.212Z,3.15
2018-12-12T03:04:28.777Z,3.40
2018-12-12T03:06:57.332Z,3.83
2018-12-12T03:09:25.918Z,3.55
2018-12-12T03:11:54.518Z,4.08
2018-12-12T03:14:23.060Z,3.45
2018-12-12T03:16:51.651Z,3.50
2018-12-12T03:19:20.217Z,3.30
2018-12-12T03:21:48.776Z,3.35
2018-12-12T03:24:17.351Z,3.60
2018-12-12T03:26:45.903Z,3.52
2018-12-12T03:29:14.501Z,3.50
2018-12-12T03:31:43.045Z,3.40
2018-12-12T03:34:11.593Z,3.35
2018-12-12T03:36:40.177Z,3.77
2018-12-12T03:39:08.784Z,3.67
2018-12-12T03:41:37.368Z,3.40
2018-12-12T03:44:05.936Z,3.00
2018-12-12T03:46:34.496Z,3.25
2018-12-12T03:49:03.829Z,3.33
2018-12-12T03:51:32.400Z,3.40
2018-12-12T03:54:00.993Z,3.20
2018-12-12T03:56:29.569Z,3.47
2018-12-12T03:58:58.155Z,2.90
2018-12-12T04:01:26.732Z,2.83
2018-12-12T04:03:56.073Z,3.25
2018-12-12T04:06:24.666Z,3.30
2018-12-12T04:08:53.209Z,3.62
2018-12-12T04:11:21.792Z,3.40
2018-12-12T04:13:50.344Z,3.80
2018-12-12T04:16:19.224Z,3.60
2018-12-12T04:18:48.144Z,2.90
2018-12-12T04:21:16.712Z,2.87
2018-12-12T04:23:45.261Z,3.20
2018-12-12T04:26:13.829Z,2.80
2018-12-12T04:28:42.373Z,3.50
2018-12-12T04:31:10.951Z,3.75
2018-12-12T04:33:39.520Z,3.47
2018-12-12T04:36:08.095Z,3.42
2018-12-12T04:38:36.675Z,2.98
2018-12-12T04:41:05.245Z,3.05
2018-12-12T04:43:33.780Z,3.83
2018-12-12T04:46:02.356Z,2.85
2018-12-12T04:48:30.954Z,3.95
2018-12-12T04:50:59.534Z,3.00
2018-12-12T04:53:28.092Z,3.87
2018-12-12T04:55:57.512Z,3.25
2018-12-12T04:58:26.130Z,2.80
2018-12-12T05:00:54.713Z,3.00
2018-12-12T05:03:23.250Z,2.90
2018-12-12T05:05:54.036Z,2.85
2018-12-12T05:08:22.586Z,3.15
2018-12-12T05:10:51.152Z,3.40
2018-12-12T05:13:19.696Z,3.37
2018-12-12T05:15:48.284Z,2.75
2018-12-12T05:18:16.841Z,2.98
2018-12-12T05:20:45.412Z,2.80
2018-12-12T05:23:13.989Z,3.72
2018-12-12T05:25:42.540Z,2.80
2018-12-12T05:28:11.093Z,2.60
2018-12-12T05:30:39.665Z,3.15
2018-12-12T05:33:08.228Z,2.62
2018-12-12T05:35:36.849Z,2.77
2018-12-12T05:38:05.395Z,2.55
2018-12-12T05:40:34.299Z,2.87
2018-12-12T05:43:03.221Z,3.15
2018-12-12T05:45:32.098Z,3.55
2018-12-12T05:48:00.644Z,2.65
2018-12-12T05:50:29.360Z,2.92
2018-12-12T05:52:57.908Z,3.33
2018-12-12T05:55:26.841Z,2.55
2018-12-12T05:57:55.399Z,3.65
2018-12-12T06:00:23.977Z,3.50
2018-12-12T06:02:52.536Z,3.33
2018-12-12T06:05:21.094Z,2.90
2018-12-12T06:07:49.665Z,3.02
2018-12-12T06:10:18.221Z,2.95
2018-12-12T06:12:46.800Z,2.85
2018-12-12T06:15:15.357Z,2.77
2018-12-12T06:17:43.905Z,2.70
2018-12-12T06:20:12.636Z,5.50
2018-12-12T06:22:41.523Z,5.00
2018-12-12T06:25:10.093Z,10.08
2018-12-12T06:27:38.706Z,9.10
2018-12-12T06:30:08.320Z,11.30
2018-12-12T06:32:36.881Z,9.85
2018-12-12T06:35:05.931Z,8.23
2018-12-12T06:37:34.480Z,6.87
2018-12-12T06:40:03.526Z,5.87
2018-12-12T06:42:32.206Z,6.80
2018-12-12T06:45:00.771Z,7.30
2018-12-12T06:47:29.378Z,5.42
2018-12-12T06:49:58.048Z,4.40
2018-12-12T06:52:26.637Z,3.55
2018-12-12T06:54:55.204Z,3.00
2018-12-12T06:57:23.771Z,3.67
2018-12-12T06:59:52.332Z,3.80
2018-12-12T07:02:20.917Z,4.10
2018-12-12T07:04:51.258Z,3.80
2018-12-12T07:07:20.168Z,4.58
2018-12-12T07:09:48.723Z,3.40
2018-12-12T07:12:17.688Z,4.37
2018-12-12T07:14:46.258Z,3.72
2018-12-12T07:17:14.812Z,3.58
2018-12-12T07:19:43.352Z,4.62
2018-12-12T07:22:11.924Z,3.65
2018-12-12T07:24:40.476Z,4.53
2018-12-12T07:27:09.056Z,4.25
2018-12-12T07:29:37.636Z,4.10
2018-12-12T07:32:06.201Z,3.65
2018-12-12T07:34:34.780Z,4.08
2018-12-12T07:37:03.348Z,4.35
2018-12-12T07:39:31.898Z,3.60
2018-12-12T07:42:00.505Z,5.25
2018-12-12T07:44:29.063Z,4.22
2018-12-12T07:46:57.967Z,3.37
2018-12-12T07:49:26.894Z,3.10
2018-12-12T07:51:55.732Z,3.10
2018-12-12T07:54:24.276Z,3.65
2018-12-12T07:56:53.027Z,4.28
2018-12-12T07:59:21.656Z,3.50
2018-12-12T08:01:50.245Z,4.03
2018-12-12T08:04:18.792Z,2.92
2018-12-12T08:06:47.407Z,3.45
2018-12-12T08:09:15.964Z,5.50
2018-12-12T08:11:44.520Z,4.60
2018-12-12T08:14:13.081Z,4.28
2018-12-12T08:16:41.689Z,4.95
2018-12-12T08:19:10.258Z,3.62
2018-12-12T08:21:38.828Z,3.72
2018-12-12T08:24:07.335Z,3.65
2018-12-12T08:26:35.960Z,4.47
2018-12-12T08:29:04.517Z,3.75
2018-12-12T08:31:33.109Z,4.42
2018-12-12T08:34:01.660Z,3.65
2018-12-12T08:36:30.241Z,4.05
2018-12-12T08:38:58.817Z,4.45
2018-12-12T08:41:27.385Z,3.85
2018-12-12T08:43:55.956Z,3.85
2018-12-12T08:46:24.552Z,4.35
2018-12-12T08:48:53.492Z,4.47
2018-12-12T08:51:22.065Z,4.40
2018-12-12T08:53:50.624Z,3.25
2018-12-12T08:56:19.200Z,3.83
2018-12-12T08:58:48.138Z,4.35
2018-12-12T09:01:16.818Z,4.00
2018-12-12T09:03:45.372Z,4.05
2018-12-12T09:06:13.929Z,4.12
2018-12-12T09:08:42.496Z,4.42
2018-12-12T09:11:11.062Z,3.83
2018-12-12T09:13:39.638Z,3.60
2018-12-12T09:16:08.196Z,3.85
2018-12-12T09:18:36.744Z,3.77
2018-12-12T09:21:05.337Z,4.20
2018-12-12T09:23:33.892Z,3.72
2018-12-12T09:26:02.464Z,3.55
2018-12-12T09:28:31.032Z,3.80
2018-12-12T09:30:59.548Z,4.00
2018-12-12T09:33:28.184Z,3.60
2018-12-12T09:35:56.841Z,3.42
2018-12-12T09:38:25.413Z,3.80
2018-12-12T09:40:54.249Z,3.72
2018-12-12T09:43:22.813Z,4.08
2018-12-12T09:45:51.397Z,3.50
2018-12-12T09:48:21.259Z,3.85
2018-12-12T09:50:50.220Z,4.00
2018-12-12T09:53:18.832Z,3.90
2018-12-12T09:55:47.392Z,4.95
2018-12-12T09:58:15.946Z,4.60
2018-12-12T10:00:44.540Z,3.80
2018-12-12T10:03:13.129Z,3.75
2018-12-12T10:05:41.692Z,4.30
2018-12-12T10:08:10.263Z,4.22
2018-12-12T10:10:38.817Z,4.17
2018-12-12T10:13:07.548Z,3.65
2018-12-12T10:15:36.132Z,3.65
2018-12-12T10:18:04.852Z,3.65
2018-12-12T10:20:33.418Z,3.80
2018-12-12T10:23:01.991Z,4.17
2018-12-12T10:25:30.550Z,4.05
2018-12-12T10:27:59.166Z,3.62
2018-12-12T10:30:27.745Z,3.72
2018-12-12T10:32:56.300Z,4.20
2018-12-12T10:35:24.885Z,3.47
2018-12-12T10:37:53.392Z,4.40
2018-12-12T10:40:22.041Z,4.42
2018-12-12T10:42:50.613Z,4.83
2018-12-12T10:45:19.214Z,4.50
2018-12-12T10:47:47.818Z,6.17
2018-12-12T10:50:16.501Z,4.60
2018-12-12T10:52:45.105Z,4.22
2018-12-12T10:55:13.693Z,3.80
2018-12-12T10:57:42.577Z,4.70
2018-12-12T11:00:12.904Z,4.80
2018-12-12T11:02:50.626Z,4.85
2018-12-12T11:05:19.521Z,5.40
2018-12-12T11:07:48.097Z,5.37
2018-12-12T11:10:17.012Z,4.23
2018-12-12T11:12:46.363Z,4.50
2018-12-12T11:15:14.949Z,3.67
2018-12-12T11:17:43.557Z,4.83
2018-12-12T11:20:12.133Z,4.72
2018-12-12T11:22:40.714Z,4.60
2018-12-12T11:25:09.437Z,4.80
2018-12-12T11:27:38.038Z,5.58
2018-12-12T11:30:06.893Z,6.97
2018-12-12T11:32:35.469Z,5.10
2018-12-12T11:35:04.340Z,6.00
2018-12-12T11:37:32.916Z,7.00
2018-12-12T11:40:01.931Z,6.12
2018-12-12T11:42:30.616Z,7.00
2018-12-12T11:44:59.207Z,6.73
2018-12-12T11:47:27.860Z,6.63
2018-12-12T11:49:56.453Z,5.97
2018-12-12T11:52:25.070Z,6.30
2018-12-12T11:54:53.654Z,7.77
2018-12-12T11:57:22.581Z,6.67
2018-12-12T11:59:51.156Z,6.20
2018-12-12T12:02:19.720Z,7.27
2018-12-12T12:04:48.321Z,7.60
2018-12-12T12:07:18.410Z,7.30
2018-12-12T12:09:47.104Z,6.57
2018-12-12T12:12:15.689Z,6.97
2018-12-12T12:14:44.248Z,7.60
2018-12-12T12:17:12.809Z,6.70
2018-12-12T12:19:41.384Z,7.50
2018-12-12T12:22:09.962Z,8.40
2018-12-12T12:24:38.528Z,7.07
2018-12-12T12:27:07.191Z,6.97
2018-12-12T12:29:35.785Z,7.13
2018-12-12T12:32:04.368Z,6.73
2018-12-12T12:34:32.939Z,7.27
2018-12-12T12:37:01.561Z,9.63
2018-12-12T12:39:30.142Z,13.03
2018-12-12T12:41:58.720Z,9.57
2018-12-12T12:44:27.309Z,10.13
2018-12-12T12:46:55.816Z,7.70
2018-12-12T12:49:24.501Z,8.63
2018-12-12T12:51:53.067Z,7.50
2018-12-12T12:54:21.628Z,8.07
2018-12-12T12:56:50.204Z,6.80
2018-12-12T12:59:18.792Z,7.40
2018-12-12T13:01:47.743Z,6.50
2018-12-12T13:04:16.403Z,7.10
2018-12-12T13:06:44.975Z,7.70
2018-12-12T13:09:13.565Z,7.83
2018-12-12T13:11:42.120Z,6.53
2018-12-12T13:14:10.748Z,7.63
2018-12-12T13:16:39.392Z,7.27
2018-12-12T13:19:07.953Z,7.17
2018-12-12T13:21:36.533Z,8.67
2018-12-12T13:24:05.100Z,7.43
2018-12-12T13:26:33.694Z,7.83
2018-12-12T13:29:02.277Z,6.83
2018-12-12T13:31:30.909Z,7.33
2018-12-12T13:33:59.499Z,4.67
2018-12-12T13:36:28.077Z,4.47
2018-12-12T13:38:56.645Z,4.50
2018-12-12T13:41:25.226Z,4.60
2018-12-12T13:43:53.801Z,3.67
2018-12-12T13:46:22.396Z,4.23
2018-12-12T13:48:51.240Z,4.87
2018-12-12T13:51:19.864Z,3.97
2018-12-12T13:53:48.449Z,4.40
2018-12-12T13:56:16.997Z,4.93
2018-12-12T13:58:45.561Z,4.37
2018-12-12T14:01:14.273Z,4.70
2018-12-12T14:03:42.837Z,4.53
2018-12-12T14:06:11.440Z,5.23
2018-12-12T14:08:39.992Z,4.83
2018-12-12T14:11:08.568Z,5.17
2018-12-12T14:13:37.144Z,4.40
2018-12-12T14:16:05.765Z,4.97
2018-12-12T14:18:34.352Z,5.50
2018-12-12T14:21:02.917Z,5.73
2018-12-12T14:23:31.484Z,5.70
2018-12-12T14:26:00.096Z,6.17
2018-12-12T14:28:28.651Z,6.10
2018-12-12T14:31:03.793Z,7.17
2018-12-12T14:33:32.357Z,6.10
2018-12-12T14:36:01.138Z,7.97
2018-12-12T14:38:29.961Z,6.73
2018-12-12T14:40:58.523Z,5.00
2018-12-12T14:43:27.137Z,6.20
2018-12-12T14:45:56.138Z,5.60
2018-12-12T14:48:30.172Z,6.53
2018-12-12T14:50:55.313Z,6.50
2018-12-12T14:53:23.864Z,7.00
2018-12-12T14:55:52.441Z,7.93
2018-12-12T14:58:21.032Z,8.90
2018-12-12T15:00:49.585Z,9.50
2018-12-12T15:03:18.174Z,8.80
2018-12-12T15:05:47.043Z,9.00
2018-12-12T15:08:15.613Z,8.20
2018-12-12T15:10:44.189Z,9.03
2018-12-12T15:13:12.760Z,9.93
2018-12-12T15:15:41.342Z,9.33
2018-12-12T15:18:09.915Z,9.00
2018-12-12T15:20:38.517Z,9.53
2018-12-12T15:23:07.216Z,8.43
2018-12-12T15:25:35.820Z,9.93
2018-12-12T15:28:04.518Z,9.40
2018-12-12T15:30:33.092Z,10.77
2018-12-12T15:33:01.742Z,10.20
2018-12-12T15:35:30.412Z,12.13
2018-12-12T15:37:58.977Z,14.00
2018-12-12T15:40:27.554Z,12.25
2018-12-12T15:42:56.129Z,13.60
2018-12-12T15:45:24.692Z,12.58
2018-12-12T15:47:53.273Z,14.67
2018-12-12T15:50:21.901Z,13.30
2018-12-12T15:52:50.467Z,13.90
2018-12-12T15:55:19.052Z,14.28
2018-12-12T15:57:47.656Z,14.95
2018-12-12T16:00:17.081Z,15.28
2018-12-12T16:02:45.901Z,16.65
2018-12-12T16:05:14.493Z,16.32
2018-12-12T16:07:43.081Z,17.57
2018-12-12T16:10:11.697Z,17.77
2018-12-12T16:12:40.270Z,16.90
2018-12-12T16:15:08.997Z,16.77
2018-12-12T16:17:37.592Z,17.37
2018-12-12T16:20:07.045Z,16.97
2018-12-12T16:22:35.626Z,16.12
2018-12-12T16:25:04.652Z,15.08
2018-12-12T16:27:33.237Z,14.05
2018-12-12T16:30:01.816Z,14.83
2018-12-12T16:32:30.406Z,16.37
2018-12-12T16:34:58.972Z,15.05
2018-12-12T16:37:27.569Z,14.85
2018-12-12T16:39:56.136Z,14.80
2018-12-12T16:42:24.711Z,16.17
2018-12-12T16:44:53.321Z,16.45
2018-12-12T16:47:21.889Z,15.40
2018-12-12T16:49:50.471Z,16.02
2018-12-12T16:52:19.081Z,14.93
2018-12-12T16:54:47.656Z,14.07
2018-12-12T16:57:16.230Z,13.70
2018-12-12T16:59:44.827Z,14.47
2018-12-12T17:02:13.389Z,15.78
2018-12-12T17:04:41.990Z,13.55
2018-12-12T17:07:10.575Z,16.27
2018-12-12T17:09:39.156Z,14.17
2018-12-12T17:12:07.812Z,15.40
2018-12-12T17:14:36.389Z,14.03
2018-12-12T17:17:04.962Z,13.98
2018-12-12T17:19:33.573Z,15.48
2018-12-12T17:22:02.137Z,14.75
2018-12-12T17:24:30.704Z,15.65
2018-12-12T17:26:59.292Z,15.38
2018-12-12T17:29:27.853Z,16.27
2018-12-12T17:31:56.416Z,15.88
2018-12-12T17:34:25.017Z,15.30
2018-12-12T17:36:54.056Z,15.15
2018-12-12T17:39:22.635Z,13.38
2018-12-12T17:41:51.212Z,15.98
2018-12-12T17:44:19.797Z,13.83
2018-12-12T17:46:48.404Z,14.93
2018-12-12T17:49:17.004Z,13.83
2018-12-12T17:51:45.578Z,14.65
2018-12-12T17:54:14.165Z,14.83
2018-12-12T17:56:42.769Z,15.32
2018-12-12T17:59:11.337Z,15.40
2018-12-12T18:01:39.914Z,14.95
2018-12-12T18:04:08.508Z,13.75
2018-12-12T18:06:37.051Z,15.53
2018-12-12T18:09:07.760Z,15.15
2018-12-12T18:11:36.365Z,16.20
2018-12-12T18:14:04.914Z,14.63
2018-12-12T18:16:33.537Z,15.70
2018-12-12T18:19:02.142Z,15.00
2018-12-12T18:21:30.729Z,15.05
2018-12-12T18:23:59.457Z,15.00
2018-12-12T18:26:28.055Z,15.15
2018-12-12T18:28:56.631Z,13.45
2018-12-12T18:31:25.270Z,14.70
2018-12-12T18:33:53.900Z,14.78
2018-12-12T18:36:22.488Z,14.35
2018-12-12T18:38:51.073Z,15.72
2018-12-12T18:41:19.662Z,16.75
2018-12-12T18:43:48.253Z,16.27
2018-12-12T18:46:16.850Z,15.60
2018-12-12T18:48:45.425Z,16.20
2018-12-12T18:51:14.061Z,13.80
2018-12-12T18:53:42.628Z,15.93
2018-12-12T18:56:11.541Z,14.85
2018-12-12T18:58:40.122Z,15.15
2018-12-12T19:01:08.707Z,16.25
2018-12-12T19:03:37.308Z,17.13
2018-12-12T19:06:05.900Z,16.25
2018-12-12T19:08:34.478Z,14.87
2018-12-12T19:11:03.078Z,16.17
2018-12-12T19:13:31.676Z,15.05
2018-12-12T19:16:00.253Z,15.50
2018-12-12T19:18:28.858Z,16.17
2018-12-12T19:21:01.997Z,16.07
2018-12-12T19:23:30.928Z,15.28
2018-12-12T19:25:59.501Z,16.62
2018-12-12T19:28:28.068Z,17.55
2018-12-12T19:30:56.656Z,16.45
2018-12-12T19:33:25.232Z,18.05
2018-12-12T19:35:53.844Z,17.07
2018-12-12T19:38:22.829Z,18.10
2018-12-12T19:40:51.393Z,18.12
2018-12-12T19:43:19.978Z,19.40
2018-12-12T19:45:48.587Z,18.48
2018-12-12T19:48:17.166Z,19.37
2018-12-12T19:50:45.757Z,18.90
2018-12-12T19:53:14.372Z,16.90
2018-12-12T19:55:42.952Z,17.48
2018-12-12T19:58:11.862Z,20.43
2018-12-12T20:00:40.436Z,18.10
2018-12-12T20:03:09.025Z,18.00
2018-12-12T20:05:41.492Z,17.87
2018-12-12T20:08:08.236Z,18.48
2018-12-12T20:10:36.813Z,17.80
2018-12-12T20:13:05.406Z,18.67
2018-12-12T20:15:39.141Z,16.62
2018-12-12T20:18:07.734Z,18.23
2018-12-12T20:20:36.309Z,19.35
2018-12-12T20:23:04.973Z,18.42
2018-12-12T20:25:33.677Z,17.52
2018-12-12T20:28:02.260Z,17.48
2018-12-12T20:30:35.376Z,17.05
2018-12-12T20:33:01.937Z,17.67
2018-12-12T20:35:30.504Z,17.98
2018-12-12T20:37:59.237Z,18.15
2018-12-12T20:40:27.805Z,18.87
2018-12-12T20:42:56.369Z,19.30
2018-12-12T20:45:25.017Z,18.62
2018-12-12T20:47:53.588Z,16.93
2018-12-12T20:50:22.274Z,18.25
2018-12-12T20:52:50.881Z,17.92
2018-12-12T20:55:19.449Z,16.95
2018-12-12T20:57:48.049Z,17.70
2018-12-12T21:00:16.632Z,17.42
2018-12-12T21:02:45.196Z,16.55
2018-12-12T21:05:13.790Z,18.17
2018-12-12T21:07:42.523Z,18.00
2018-12-12T21:10:11.204Z,18.35
2018-12-12T21:12:39.781Z,16.62
2018-12-12T21:15:08.724Z,16.32
2018-12-12T21:17:37.457Z,16.40
2018-12-12T21:20:08.540Z,16.32
2018-12-12T21:22:37.129Z,15.95
2018-12-12T21:25:06.537Z,16.73
2018-12-12T21:27:35.124Z,17.60
2018-12-12T21:30:04.085Z,16.05
2018-12-12T21:32:32.660Z,16.73
2018-12-12T21:35:01.255Z,17.92
2018-12-12T21:37:30.248Z,15.32
2018-12-12T21:39:59.779Z,15.55
2018-12-12T21:42:28.376Z,17.37
2018-12-12T21:44:56.948Z,16.12
2018-12-12T21:47:25.541Z,16.50
2018-12-12T21:49:54.133Z,15.98
2018-12-12T21:52:22.730Z,15.78
2018-12-12T21:54:51.304Z,15.70
2018-12-12T21:57:20.708Z,16.30
2018-12-12T21:59:49.273Z,15.90
2018-12-12T22:02:17.837Z,14.70
2018-12-12T22:04:47.161Z,16.23
2018-12-12T22:07:15.733Z,16.45
2018-12-12T22:09:44.407Z,14.98
2018-12-12T22:12:12.997Z,15.30
2018-12-12T22:14:41.548Z,15.72
2018-12-12T22:17:10.488Z,16.10
2018-12-12T22:19:39.068Z,16.02
2018-12-12T22:22:07.648Z,16.02
2018-12-12T22:24:36.211Z,14.00
2018-12-12T22:27:04.836Z,15.63
2018-12-12T22:29:33.421Z,15.60
2018-12-12T22:32:02.006Z,14.95
2018-12-12T22:34:30.557Z,14.93
2018-12-12T22:36:59.172Z,16.32
2018-12-12T22:39:27.734Z,16.42
2018-12-12T22:41:56.325Z,17.57
2018-12-12T22:44:24.880Z,18.80
2018-12-12T22:46:53.455Z,17.32
2018-12-12T22:49:22.046Z,16.15
2018-12-12T22:51:50.616Z,16.25
2018-12-12T22:54:19.217Z,17.80
2018-12-12T22:56:47.901Z,16.35
2018-12-12T22:59:16.469Z,16.90
2018-12-12T23:01:45.069Z,16.97
2018-12-12T23:04:13.646Z,18.05
2018-12-12T23:06:42.243Z,18.87
2018-12-12T23:09:10.942Z,17.55
2018-12-12T23:11:39.496Z,16.50
2018-12-12T23:14:08.081Z,15.88
2018-12-12T23:16:36.648Z,20.85
2018-12-12T23:19:05.242Z,17.98
2018-12-12T23:21:33.853Z,18.50
2018-12-12T23:24:02.513Z,18.90
2018-12-12T23:26:31.081Z,22.25
2018-12-12T23:28:59.666Z,22.42
2018-12-12T23:31:28.225Z,20.17
2018-12-12T23:33:56.780Z,24.05
2018-12-12T23:36:27.066Z,23.75
2018-12-12T23:38:55.865Z,21.42
2018-12-12T23:41:24.449Z,22.58
2018-12-12T23:43:53.030Z,21.65
2018-12-12T23:46:21.594Z,22.30
2018-12-12T23:48:50.169Z,21.73
2018-12-12T23:51:18.769Z,21.45
2018-12-12T23:53:47.401Z,22.22
2018-12-12T23:56:15.961Z,21.17
2018-12-12T23:58:44.564Z,21.23
